Time;durP1;ratioP1;P1;durP2;ratioP2;P2;SDS_P1;SDS_P2;PMS_P1;PMS_P2;Temp;Humidity;BMP_temperature;BMP_pressure;BME280_temperature;BME280_humidity;BME280_pressure;Samples;Min_cycle;Max_cycle;Signal;HPM_P1;HPM_P2
2023/05/11 00:03:09;;;;;;;;;;;;;;;;;;10325749;28;1902;-67
2023/05/11 00:08:05;;;;;;;;;;;;;;;;;;10324264;28;1084;-67
2023/05/11 00:13:00;;;;;;;;;;;;;;;;;;10324891;28;860;-67
2023/05/11 00:17:56;;;;;;;;;;;;;;;;;;10325970;28;920;-67
2023/05/11 00:22:52;;;;;;;;;;;;;;;;;;10324149;28;1886;-67
2023/05/11 00:27:48;;;;;;;;;;;;;;;;;;10324576;28;868;-67
2023/05/11 00:32:44;;;;;;;;;;;;;;;;;;10325049;28;857;-66
2023/05/11 00:37:40;;;;;;;;;;;;;;;;;;10324478;28;892;-67
2023/05/11 00:42:36;;;;;;;;;;;;;;;;;;10324090;28;1984;-67
2023/05/11 00:47:31;;;;;;;;;;;;;;;;;;10326392;28;808;-67
2023/05/11 00:52:27;;;;;;;;;;;;;;;;;;10331421;28;822;-67
2023/05/11 00:57:23;;;;;;;;;;;;;;;;;;10331250;28;864;-67
2023/05/11 01:02:19;;;;;;;;;;;;;;;;;;10331558;28;1890;-66
2023/05/11 01:07:15;;;;;;;;;;;;;;;;;;10330889;28;912;-67
2023/05/11 01:12:11;;;;;;;;;;;;;;;;;;10331295;28;1045;-66
2023/05/11 01:17:07;;;;;;;;;;;;;;;;;;10331295;28;873;-66
2023/05/11 01:22:02;;;;;;;;;;;;;;;;;;10330502;28;1890;-67
2023/05/11 01:26:59;;;;;;;;;;;;;;;;;;10330146;28;995;-67
2023/05/11 01:31:55;;;;;;;;;;;;;;;;;;10329922;28;919;-67
2023/05/11 01:36:51;;;;;;;;;;;;;;;;;;10329727;28;869;-67
2023/05/11 01:41:47;;;;;;;;;;;;;;;;;;10330335;28;1967;-67
2023/05/11 01:46:42;;;;;;;;;;;;;;;;;;10328832;28;1022;-67
2023/05/11 01:51:38;;;;;;;;;;;;;;;;;;10329484;28;947;-67
2023/05/11 01:56:34;;;;;;;;;;;;;;;;;;10329847;28;726;-67
2023/05/11 02:01:31;;;;;;;;;;;;;;;;;;10328677;28;1943;-66
2023/05/11 02:06:26;;;;;;;;;;;;;;;;;;10328612;28;877;-66
2023/05/11 02:11:22;;;;;;;;;;;;;;;;;;10328432;28;821;-66
2023/05/11 02:16:18;;;;;;;;;;;;;;;;;;10328152;28;958;-67
2023/05/11 02:21:14;;;;;;;;;;;;;;;;;;10328779;28;1894;-66
2023/05/11 02:26:10;;;;;;;;;;;;;;;;;;10328371;28;774;-67
2023/05/11 02:31:06;;;;;;;;;;;;;;;;;;10327581;28;852;-66
2023/05/11 02:36:02;;;;;;;;;;;;;;;;;;10326760;28;837;-67
2023/05/11 02:40:57;;;;;;;;;;;;;;;;;;10327246;28;1987;-67
2023/05/11 02:45:53;;;;;;;;;;;;;;;;;;10327057;28;758;-67
2023/05/11 02:50:50;;;;;;;;;;;;;;;;;;10326849;28;758;-67
2023/05/11 02:55:46;;;;;;;;;;;;;;;;;;10326013;28;1105;-67
2023/05/11 03:00:42;;;;;;;;;;;;;;;;;;10327348;28;1882;-67
2023/05/11 03:05:37;;;;;;;;;;;;;;;;;;10326910;28;852;-67
2023/05/11 03:10:33;;;;;;;;;;;;;;;;;;10325820;28;742;-66
2023/05/11 03:15:29;;;;;;;;;;;;;;;;;;10326669;28;854;-66
2023/05/11 03:20:25;;;;;;;;;;;;;;;;;;10326501;28;1957;-66
2023/05/11 03:25:21;;;;;;;;;;;;;;;;;;10326477;28;860;-66
2023/05/11 03:30:17;;;;;;;;;;;;;;;;;;10325683;28;862;-66
2023/05/11 03:35:13;;;;;;;;;;;;;;;;;;10325806;28;935;-67
2023/05/11 03:40:09;;;;;;;;;;;;;;;;;;10325018;28;1987;-67
2023/05/11 03:45:05;;;;;;;;;;;;;;;;;;10325669;28;927;-67
2023/05/11 03:50:01;;;;;;;;;;;;;;;;;;10325900;28;845;-66
2023/05/11 03:54:56;;;;;;;;;;;;;;;;;;10326048;28;888;-66
2023/05/11 03:59:52;;;;;;;;;;;;;;;;;;10324529;28;1890;-67
2023/05/11 04:04:48;;;;;;;;;;;;;;;;;;10325067;28;940;-67
2023/05/11 04:09:44;;;;;;;;;;;;;;;;;;10325940;28;1053;-67
2023/05/11 04:14:40;;;;;;;;;;;;;;;;;;10325419;28;853;-67
2023/05/11 04:19:36;;;;;;;;;;;;;;;;;;10325259;28;1955;-67
2023/05/11 04:24:32;;;;;;;;;;;;;;;;;;10330284;28;856;-67
2023/05/11 04:29:28;;;;;;;;;;;;;;;;;;10332974;28;904;-66
2023/05/11 04:34:24;;;;;;;;;;;;;;;;;;10333139;28;881;-68
2023/05/11 04:39:20;;;;;;;;;;;;;;;;;;10332369;28;1922;-66
2023/05/11 04:44:15;;;;;;;;;;;;;;;;;;10331790;28;753;-67
2023/05/11 04:49:11;;;;;;;;;;;;;;;;;;10331078;28;1002;-66
2023/05/11 04:54:09;;;;;;;;;;;;;;;;;;10332044;28;876;-67
2023/05/11 04:59:04;;;;;;;;;;;;;;;;;;10331104;28;1955;-66
2023/05/11 05:04:00;;;;;;;;;;;;;;;;;;10331715;28;899;-66
2023/05/11 05:08:56;;;;;;;;;;;;;;;;;;10331484;28;873;-66
2023/05/11 05:13:52;;;;;;;;;;;;;;;;;;10330109;28;1004;-67
2023/05/11 05:18:48;;;;;;;;;;;;;;;;;;10331077;28;1886;-66
2023/05/11 05:23:44;;;;;;;;;;;;;;;;;;10330354;28;861;-67
2023/05/11 05:28:40;;;;;;;;;;;;;;;;;;10330535;28;959;-66
2023/05/11 05:33:36;;;;;;;;;;;;;;;;;;10330175;28;944;-68
2023/05/11 05:38:31;;;;;;;;;;;;;;;;;;10330285;28;1187;-66
2023/05/11 05:43:27;;;;;;;;;;;;;;;;;;10329636;28;1979;-66
2023/05/11 05:48:23;;;;;;;;;;;;;;;;;;10329437;28;845;-68
2023/05/11 05:53:19;;;;;;;;;;;;;;;;;;10329260;28;949;-66
2023/05/11 05:58:15;;;;;;;;;;;;;;;;;;10329642;28;932;-66
2023/05/11 06:03:11;;;;;;;;;;;;;;;;;;10329419;28;1890;-68
2023/05/11 06:08:07;;;;;;;;;;;;;;;;;;10328774;28;880;-66
2023/05/11 06:13:02;;;;;;;;;;;;;;;;;;10328443;28;813;-66
2023/05/11 06:17:58;;;;;;;;;;;;;;;;;;10328755;28;821;-66
2023/05/11 06:22:54;;;;;;;;;;;;;;;;;;10327925;28;1906;-66
2023/05/11 06:27:50;;;;;;;;;;;;;;;;;;10325221;28;952;-66
2023/05/11 06:32:46;;;;;;;;;;;;;;;;;;10327675;28;834;-67
2023/05/11 06:37:42;;;;;;;;;;;;;;;;;;10327457;28;826;-66
2023/05/11 06:42:38;;;;;;;;;;;;;;;;;;10326295;28;1977;-66
2023/05/11 06:47:34;;;;;;;;;;;;;;;;;;10327008;28;878;-66
2023/05/11 06:52:30;;;;;;;;;;;;;;;;;;10326799;28;834;-66
2023/05/11 06:57:25;;;;;;;;;;;;;;;;;;10327289;28;840;-66
2023/05/11 07:02:21;;;;;;;;;;;;;;;;;;10326405;28;1951;-66
2023/05/11 07:07:17;;;;;;;;;;;;;;;;;;10326332;28;849;-66
2023/05/11 07:12:13;;;;;;;;;;;;;;;;;;10326192;28;940;-66
2023/05/11 07:17:09;;;;;;;;;;;;;;;;;;10326094;28;817;-66
2023/05/11 07:22:05;;;;;;;;;;;;;;;;;;10327084;28;1890;-66
2023/05/11 07:27:01;;;;;;;;;;;;;;;;;;10325804;28;976;-66
2023/05/11 07:31:57;;;;;;;;;;;;;;;;;;10325865;28;750;-67
2023/05/11 07:36:53;;;;;;;;;;;;;;;;;;10325621;28;817;-67
2023/05/11 07:41:49;;;;;;;;;;;;;;;;;;10326187;28;1910;-66
2023/05/11 07:46:45;;;;;;;;;;;;;;;;;;10325431;28;1026;-67
2023/05/11 07:51:40;;;;;;;;;;;;;;;;;;10325943;28;892;-65
2023/05/11 07:56:36;;;;;;;;;;;;;;;;;;10328799;28;840;-66
2023/05/11 08:01:32;;;;;;;;;;;;;;;;;;10333503;28;1890;-66
2023/05/11 08:06:29;;;;;;;;;;;;;;;;;;10333333;28;821;-66
2023/05/11 08:11:25;;;;;;;;;;;;;;;;;;10333106;28;975;-66
2023/05/11 08:16:21;;;;;;;;;;;;;;;;;;10333630;28;781;-66
2023/05/11 08:21:17;;;;;;;;;;;;;;;;;;10332697;28;1890;-66
2023/05/11 08:26:13;;;;;;;;;;;;;;;;;;10332718;28;797;-66
2023/05/11 08:31:09;;;;;;;;;;;;;;;;;;10332452;28;915;-66
2023/05/11 08:36:05;;;;;;;;;;;;;;;;;;10332800;28;758;-66
2023/05/11 08:41:01;;;;;;;;;;;;;;;;;;10331779;28;1931;-66
2023/05/11 08:45:56;;;;;;;;;;;;;;;;;;10332570;28;963;-66
2023/05/11 08:50:52;;;;;;;;;;;;;;;;;;10331916;28;754;-66
2023/05/11 08:55:48;;;;;;;;;;;;;;;;;;10331731;28;1014;-66
2023/05/11 09:00:44;;;;;;;;;;;;;;;;;;10331216;28;1959;-66
2023/05/11 09:05:40;;;;;;;;;;;;;;;;;;10330438;28;892;-71
2023/05/11 09:10:36;;;;;;;;;;;;;;;;;;10331022;28;817;-71
2023/05/11 09:15:32;;;;;;;;;;;;;;;;;;10330679;28;826;-71
2023/05/11 09:20:28;;;;;;;;;;;;;;;;;;10329937;28;1882;-71
2023/05/11 09:25:24;;;;;;;;;;;;;;;;;;10330891;28;783;-71
2023/05/11 09:30:20;;;;;;;;;;;;;;;;;;10330779;28;845;-71
2023/05/11 09:35:16;;;;;;;;;;;;;;;;;;10330604;28;872;-71
2023/05/11 09:40:12;;;;;;;;;;;;;;;;;;10330678;28;1918;-71
2023/05/11 09:45:08;;;;;;;;;;;;;;;;;;10330221;28;892;-71
2023/05/11 09:50:04;;;;;;;;;;;;;;;;;;10330036;28;892;-71
2023/05/11 09:55:00;;;;;;;;;;;;;;;;;;10328648;28;979;-71
2023/05/11 09:59:56;;;;;;;;;;;;;;;;;;10329766;28;1932;-71
2023/05/11 10:04:51;;;;;;;;;;;;;;;;;;10329417;28;888;-71
2023/05/11 10:09:49;;;;;;;;;;;;;;;;;;10329172;28;1020;-71
2023/05/11 10:14:45;;;;;;;;;;;;;;;;;;10327709;28;884;-71
2023/05/11 10:19:41;;;;;;;;;;;;;;;;;;10327098;28;1882;-71
2023/05/11 10:24:37;;;;;;;;;;;;;;;;;;10328787;28;797;-71
2023/05/11 10:29:33;;;;;;;;;;;;;;;;;;10328390;28;896;-71
2023/05/11 10:34:29;;;;;;;;;;;;;;;;;;10327496;28;813;-71
2023/05/11 10:39:25;;;;;;;;;;;;;;;;;;10327044;28;1977;-71
2023/05/11 10:44:21;;;;;;;;;;;;;;;;;;10327764;28;770;-70
2023/05/11 10:49:17;;;;;;;;;;;;;;;;;;10327767;28;781;-71
2023/05/11 10:54:13;;;;;;;;;;;;;;;;;;10326857;28;942;-71
2023/05/11 10:59:09;;;;;;;;;;;;;;;;;;10327080;28;1886;-71
2023/05/11 11:04:05;;;;;;;;;;;;;;;;;;10326482;28;983;-71
2023/05/11 11:09:01;;;;;;;;;;;;;;;;;;10326928;28;882;-71
2023/05/11 11:13:57;;;;;;;;;;;;;;;;;;10326256;28;877;-70
2023/05/11 11:18:53;;;;;;;;;;;;;;;;;;10326918;28;800;-70
2023/05/11 11:23:49;;;;;;;;;;;;;;;;;;10325940;28;1951;-71
2023/05/11 11:28:45;;;;;;;;;;;;;;;;;;10326742;28;1854;-71
2023/05/11 11:33:41;;;;;;;;;;;;;;;;;;10325595;28;868;-71
2023/05/11 11:38:37;;;;;;;;;;;;;;;;;;10325301;28;1181;-72
2023/05/11 11:43:34;;;;;;;;;;;;;;;;;;10325932;28;1906;-74
2023/05/11 11:48:30;;;;;;;;;;;;;;;;;;10326054;28;860;-73
2023/05/11 11:53:26;;;;;;;;;;;;;;;;;;10326449;28;834;-71
2023/05/11 11:58:22;;;;;;;;;;;;;;;;;;10325775;28;849;-71
2023/05/11 12:03:18;;;;;;;;;;;;;;;;;;10325194;28;1882;-71
2023/05/11 12:08:13;;;;;;;;;;;;;;;;;;10325019;28;759;-71
2023/05/11 12:13:09;;;;;;;;;;;;;;;;;;10324403;28;892;-72
2023/05/11 12:18:05;;;;;;;;;;;;;;;;;;10324884;28;813;-71
2023/05/11 12:23:01;;;;;;;;;;;;;;;;;;10325610;28;1890;-71
2023/05/11 12:27:59;;;;;;;;;;;;;;;;;;10325213;28;853;-67
2023/05/11 12:32:55;;;;;;;;;;;;;;;;;;10325652;28;864;-67
2023/05/11 12:37:51;;;;;;;;;;;;;;;;;;10325004;28;1610;-68
2023/05/11 12:42:47;;;;;;;;;;;;;;;;;;10325935;28;1906;-67
2023/05/11 12:47:43;;;;;;;;;;;;;;;;;;10331217;28;940;-67
2023/05/11 12:52:38;;;;;;;;;;;;;;;;;;10332204;28;892;-68
2023/05/11 12:57:34;;;;;;;;;;;;;;;;;;10332413;28;911;-68
2023/05/11 13:02:30;;;;;;;;;;;;;;;;;;10331186;28;1890;-68
2023/05/11 13:07:26;;;;;;;;;;;;;;;;;;10331545;28;923;-68
2023/05/11 13:12:24;;;;;;;;;;;;;;;;;;10330536;28;1057;-68
2023/05/11 13:17:20;;;;;;;;;;;;;;;;;;10330402;28;847;-68
2023/05/11 13:22:16;;;;;;;;;;;;;;;;;;10330736;28;1894;-68
2023/05/11 13:27:12;;;;;;;;;;;;;;;;;;10330087;28;769;-68
2023/05/11 13:32:08;;;;;;;;;;;;;;;;;;10329876;28;870;-68
2023/05/11 13:37:04;;;;;;;;;;;;;;;;;;10329680;28;817;-67
2023/05/11 13:41:59;;;;;;;;;;;;;;;;;;10328703;28;1906;-68
2023/05/11 13:46:55;;;;;;;;;;;;;;;;;;10329967;28;888;-68
2023/05/11 13:51:51;;;;;;;;;;;;;;;;;;10329286;28;920;-68
2023/05/11 13:56:47;;;;;;;;;;;;;;;;;;10328745;28;781;-68
2023/05/11 14:01:43;;;;;;;;;;;;;;;;;;10328775;28;1890;-68
2023/05/11 14:06:39;;;;;;;;;;;;;;;;;;10328806;28;840;-68
2023/05/11 14:11:35;;;;;;;;;;;;;;;;;;10328534;28;875;-67
2023/05/11 14:16:31;;;;;;;;;;;;;;;;;;10328371;28;782;-67
2023/05/11 14:21:26;;;;;;;;;;;;;;;;;;10328756;28;1949;-68
2023/05/11 14:26:22;;;;;;;;;;;;;;;;;;10327410;28;873;-67
2023/05/11 14:31:18;;;;;;;;;;;;;;;;;;10327764;28;857;-68
2023/05/11 14:36:14;;;;;;;;;;;;;;;;;;10327590;28;763;-68
2023/05/11 14:41:10;;;;;;;;;;;;;;;;;;10326524;28;1906;-68
2023/05/11 14:46:06;;;;;;;;;;;;;;;;;;10327425;28;849;-68
2023/05/11 14:51:03;;;;;;;;;;;;;;;;;;10327532;28;789;-68
2023/05/11 14:55:59;;;;;;;;;;;;;;;;;;10326413;28;1735;-68
2023/05/11 15:00:55;;;;;;;;;;;;;;;;;;10326541;28;1890;-67
2023/05/11 15:05:51;;;;;;;;;;;;;;;;;;10325890;28;1098;-67
2023/05/11 15:10:48;;;;;;;;;;;;;;;;;;10326372;28;764;-67
2023/05/11 15:15:43;;;;;;;;;;;;;;;;;;10326226;28;805;-69
2023/05/11 15:20:41;;;;;;;;;;;;;;;;;;10326067;28;1894;-68
2023/05/11 15:25:36;;;;;;;;;;;;;;;;;;10326149;28;833;-68
2023/05/11 15:30:32;;;;;;;;;;;;;;;;;;10325797;28;851;-67
2023/05/11 15:35:28;;;;;;;;;;;;;;;;;;10326337;28;821;-68
2023/05/11 15:40:24;;;;;;;;;;;;;;;;;;10325945;28;1917;-67
2023/05/11 15:45:20;;;;;;;;;;;;;;;;;;10326131;28;817;-67
2023/05/11 15:50:16;;;;;;;;;;;;;;;;;;10326015;28;805;-67
2023/05/11 15:55:11;;;;;;;;;;;;;;;;;;10325533;28;876;-67
2023/05/11 16:00:09;;;;;;;;;;;;;;;;;;10325658;28;1894;-68
2023/05/11 16:05:05;;;;;;;;;;;;;;;;;;10325011;28;991;-68
2023/05/11 16:10:01;;;;;;;;;;;;;;;;;;10325546;28;898;-68
2023/05/11 16:14:57;;;;;;;;;;;;;;;;;;10324898;28;941;-68
2023/05/11 16:19:53;;;;;;;;;;;;;;;;;;10331722;28;1885;-68
2023/05/11 16:24:49;;;;;;;;;;;;;;;;;;10332703;28;956;-68
2023/05/11 16:29:45;;;;;;;;;;;;;;;;;;10332244;28;745;-67
2023/05/11 16:34:40;;;;;;;;;;;;;;;;;;10332949;28;1177;-68
2023/05/11 16:39:36;;;;;;;;;;;;;;;;;;10332732;28;1910;-67
2023/05/11 16:44:32;;;;;;;;;;;;;;;;;;10332005;28;771;-67
2023/05/11 16:49:28;;;;;;;;;;;;;;;;;;10331810;28;853;-68
2023/05/11 16:54:25;;;;;;;;;;;;;;;;;;10331078;28;899;-68
2023/05/11 16:59:21;;;;;;;;;;;;;;;;;;10331286;28;1963;-68
2023/05/11 17:04:17;;;;;;;;;;;;;;;;;;10331870;28;890;-68
2023/05/11 17:09:13;;;;;;;;;;;;;;;;;;10330486;28;853;-68
2023/05/11 17:14:09;;;;;;;;;;;;;;;;;;10330834;28;862;-69
2023/05/11 17:19:04;;;;;;;;;;;;;;;;;;10332470;28;848;-67
2023/05/11 17:24:00;;;;;;;;;;;;;;;;;;10331073;28;1943;-67
2023/05/11 17:28:56;;;;;;;;;;;;;;;;;;10329820;28;821;-68
2023/05/11 17:33:52;;;;;;;;;;;;;;;;;;10330205;28;864;-68
2023/05/11 17:38:50;;;;;;;;;;;;;;;;;;10329824;28;1114;-68
2023/05/11 17:43:46;;;;;;;;;;;;;;;;;;10329782;28;1914;-68
2023/05/11 17:48:42;;;;;;;;;;;;;;;;;;10329482;28;761;-69
2023/05/11 17:53:38;;;;;;;;;;;;;;;;;;10329793;28;897;-68
2023/05/11 17:58:34;;;;;;;;;;;;;;;;;;10329671;28;826;-68
2023/05/11 18:03:30;;;;;;;;;;;;;;;;;;10328732;28;1903;-67
2023/05/11 18:08:26;;;;;;;;;;;;;;;;;;10328598;28;777;-67
2023/05/11 18:13:23;;;;;;;;;;;;;;;;;;10328374;28;877;-67
2023/05/11 18:18:19;;;;;;;;;;;;;;;;;;10328756;28;884;-68
2023/05/11 18:23:15;;;;;;;;;;;;;;;;;;10328087;28;1882;-67
2023/05/11 18:28:11;;;;;;;;;;;;;;;;;;10327793;28;916;-68
2023/05/11 18:33:07;;;;;;;;;;;;;;;;;;10328127;28;774;-68
2023/05/11 18:38:03;;;;;;;;;;;;;;;;;;10327995;28;913;-67
2023/05/11 18:43:00;;;;;;;;;;;;;;;;;;10326184;28;1910;-68
2023/05/11 18:47:56;;;;;;;;;;;;;;;;;;10326951;28;1000;-67
2023/05/11 18:52:52;;;;;;;;;;;;;;;;;;10326877;28;784;-67
2023/05/11 18:57:47;;;;;;;;;;;;;;;;;;10327337;28;864;-68
2023/05/11 19:02:46;;;;;;;;;;;;;;;;;;10327095;28;1879;-67
2023/05/11 19:07:42;;;;;;;;;;;;;;;;;;10327041;28;1634;-67
2023/05/11 19:12:38;;;;;;;;;;;;;;;;;;10325663;28;1559;-67
2023/05/11 19:17:34;;;;;;;;;;;;;;;;;;10325568;28;910;-69
2023/05/11 19:22:30;;;;;;;;;;;;;;;;;;10326623;28;1882;-68
2023/05/11 19:27:26;;;;;;;;;;;;;;;;;;10327127;28;899;-68
2023/05/11 19:32:22;;;;;;;;;;;;;;;;;;10325234;28;915;-68
2023/05/11 19:37:18;;;;;;;;;;;;;;;;;;10326254;28;857;-68
2023/05/11 19:42:13;;;;;;;;;;;;;;;;;;10326533;28;1910;-68
2023/05/11 19:47:09;;;;;;;;;;;;;;;;;;10325529;28;791;-68
2023/05/11 19:52:05;;;;;;;;;;;;;;;;;;10325899;28;925;-66
2023/05/11 19:57:01;;;;;;;;;;;;;;;;;;10325270;28;817;-67
2023/05/11 20:01:57;;;;;;;;;;;;;;;;;;10325119;28;1886;-67
2023/05/11 20:06:53;;;;;;;;;;;;;;;;;;10325137;28;785;-67
2023/05/11 20:11:50;;;;;;;;;;;;;;;;;;10325860;28;797;-68
2023/05/11 20:16:45;;;;;;;;;;;;;;;;;;10324975;28;770;-68
2023/05/11 20:21:41;;;;;;;;;;;;;;;;;;10325338;28;1944;-71
2023/05/11 20:26:37;;;;;;;;;;;;;;;;;;10324968;28;884;-70
2023/05/11 20:31:33;;;;;;;;;;;;;;;;;;10325424;28;833;-70
2023/05/11 20:36:29;;;;;;;;;;;;;;;;;;10324591;28;882;-70
2023/05/11 20:41:25;;;;;;;;;;;;;;;;;;10324770;28;1961;-70
2023/05/11 20:46:21;;;;;;;;;;;;;;;;;;10325159;28;826;-70
2023/05/11 20:51:18;;;;;;;;;;;;;;;;;;10324317;28;781;-70
2023/05/11 20:56:14;;;;;;;;;;;;;;;;;;10324236;28;954;-70
2023/05/11 21:01:10;;;;;;;;;;;;;;;;;;10324603;28;1878;-70
2023/05/11 21:06:07;;;;;;;;;;;;;;;;;;10327876;28;981;-70
2023/05/11 21:11:03;;;;;;;;;;;;;;;;;;10331603;28;834;-70
2023/05/11 21:15:59;;;;;;;;;;;;;;;;;;10330302;28;932;-70
2023/05/11 21:20:55;;;;;;;;;;;;;;;;;;10330660;28;1941;-70
2023/05/11 21:25:51;;;;;;;;;;;;;;;;;;10329951;28;979;-70
2023/05/11 21:30:46;;;;;;;;;;;;;;;;;;10329739;28;805;-70
2023/05/11 21:35:42;;;;;;;;;;;;;;;;;;10330210;28;884;-70
2023/05/11 21:40:38;;;;;;;;;;;;;;;;;;10329969;28;1910;-70
2023/05/11 21:45:34;;;;;;;;;;;;;;;;;;10329789;28;776;-70
2023/05/11 21:50:30;;;;;;;;;;;;;;;;;;10329630;28;856;-70
2023/05/11 21:55:26;;;;;;;;;;;;;;;;;;10329408;28;825;-70
2023/05/11 22:00:22;;;;;;;;;;;;;;;;;;10329711;28;1943;-70
2023/05/11 22:05:18;;;;;;;;;;;;;;;;;;10330269;28;897;-70
2023/05/11 22:10:14;;;;;;;;;;;;;;;;;;10329428;28;1001;-70
2023/05/11 22:15:10;;;;;;;;;;;;;;;;;;10328470;28;755;-70
2023/05/11 22:20:07;;;;;;;;;;;;;;;;;;10328388;28;1890;-70
2023/05/11 22:25:02;;;;;;;;;;;;;;;;;;10328176;28;873;-70
2023/05/11 22:29:58;;;;;;;;;;;;;;;;;;10328074;28;931;-70
2023/05/11 22:34:54;;;;;;;;;;;;;;;;;;10329199;28;852;-70
2023/05/11 22:39:50;;;;;;;;;;;;;;;;;;10327927;28;1906;-70
2023/05/11 22:44:46;;;;;;;;;;;;;;;;;;10327390;28;936;-70
2023/05/11 22:49:42;;;;;;;;;;;;;;;;;;10327783;28;825;-70
2023/05/11 22:54:38;;;;;;;;;;;;;;;;;;10557256;22;3067;-72
2023/05/11 22:59:34;;;;;;;;;;;;;;;;;;10245615;28;1979;-72
2023/05/11 23:04:30;;;;;;;;;;;;;;;;;;10246444;28;752;-72
2023/05/11 23:09:27;;;;;;;;;;;;;;;;;;10245431;28;798;-72
2023/05/11 23:14:23;;;;;;;;;;;;;;;;;;10245411;28;834;-72
2023/05/11 23:19:19;;;;;;;;;;;;;;;;;;10245055;28;894;-72
2023/05/11 23:24:15;;;;;;;;;;;;;;;;;;10245399;28;1950;-72
2023/05/11 23:29:11;;;;;;;;;;;;;;;;;;10244841;28;836;-72
2023/05/11 23:34:07;;;;;;;;;;;;;;;;;;10244558;28;867;-72
2023/05/11 23:39:04;;;;;;;;;;;;;;;;;;10244427;28;893;-72
2023/05/11 23:44:00;;;;;;;;;;;;;;;;;;10244298;28;1947;-72
2023/05/11 23:48:56;;;;;;;;;;;;;;;;;;10244201;28;949;-72
2023/05/11 23:53:51;;;;;;;;;;;;;;;;;;10244056;28;1432;-70
2023/05/11 23:58:49;;;;;;;;;;;;;;;;;;10244117;28;747;-72
